Time;durP1;ratioP1;P1;durP2;ratioP2;P2;SDS_P1;SDS_P2;PMS_P1;PMS_P2;Temp;Humidity;BMP_temperature;BMP_pressure;BME280_temperature;BME280_humidity;BME280_pressure;Samples;Min_cycle;Max_cycle;Signal;HPM_P1;HPM_P2
2023/07/19 00:00:13;;;;;;;;;;;;;;;23.96;56.78;101054.59;107611;1251;110115;-60
2023/07/19 00:03:01;;;;;;;;;;;;;;;23.94;56.45;101058.07;107511;1251;107670;-61
2023/07/19 00:05:29;;;;;;;;;;;;;;;23.93;57.04;101046.80;107493;1254;99736;-61
2023/07/19 00:07:59;;;;;;;;;;;;;;;23.92;56.92;101032.52;107506;1253;99060;-61
2023/07/19 00:10:27;;;;;;;;;;;;;;;23.89;56.15;101025.61;107526;1254;112625;-62
2023/07/19 00:12:56;;;;;;;;;;;;;;;23.84;55.74;101025.20;107505;1251;108673;-61
2023/07/19 00:15:24;;;;;;;;;;;;;;;23.80;55.36;101024.55;107534;1252;107334;-62
2023/07/19 00:17:52;;;;;;;;;;;;;;;23.75;55.24;101023.73;107660;1254;99187;-62
2023/07/19 00:20:20;;;;;;;;;;;;;;;23.72;55.23;101018.19;107626;1255;99168;-60
2023/07/19 00:22:49;;;;;;;;;;;;;;;23.71;55.28;101014.27;107652;1253;113052;-61
2023/07/19 00:25:17;;;;;;;;;;;;;;;23.67;56.65;101016.23;107519;1254;107898;-61
2023/07/19 00:27:48;;;;;;;;;;;;;;;23.62;57.10;101010.67;107559;1253;108262;-60
2023/07/19 00:30:17;;;;;;;;;;;;;;;23.58;56.98;101009.85;107542;1251;99219;-62
2023/07/19 00:32:46;;;;;;;;;;;;;;;23.54;57.23;101012.27;107477;1251;99063;-63
2023/07/19 00:35:14;;;;;;;;;;;;;;;23.50;57.34;101015.08;107500;1251;113491;-62
2023/07/19 00:37:43;;;;;;;;;;;;;;;23.45;57.16;101019.65;107596;1251;109981;-62
2023/07/19 00:40:12;;;;;;;;;;;;;;;23.40;57.23;101021.99;107478;1254;107602;-62
2023/07/19 00:42:40;;;;;;;;;;;;;;;23.34;57.27;101024.38;107466;1251;99181;-62
2023/07/19 00:45:09;;;;;;;;;;;;;;;23.25;57.40;101029.67;107551;1254;99055;-61
2023/07/19 00:47:38;;;;;;;;;;;;;;;23.19;57.85;101035.99;107483;1254;112983;-61
2023/07/19 00:50:07;;;;;;;;;;;;;;;23.12;57.87;101035.14;107594;1251;109270;-60
2023/07/19 00:52:35;;;;;;;;;;;;;;;23.06;58.12;101037.70;107646;1254;107055;-61
2023/07/19 00:55:05;;;;;;;;;;;;;;;22.99;58.54;101033.13;107559;1254;99613;-62
2023/07/19 00:57:34;;;;;;;;;;;;;;;22.93;59.05;101027.98;107420;1254;99301;-63
2023/07/19 01:00:04;;;;;;;;;;;;;;;22.88;58.97;101024.84;107537;1254;113524;-62
2023/07/19 01:02:32;;;;;;;;;;;;;;;22.81;59.85;101016.36;107613;1251;109019;-62
2023/07/19 01:05:00;;;;;;;;;;;;;;;22.75;60.25;101009.22;107605;1251;107234;-61
2023/07/19 01:07:29;;;;;;;;;;;;;;;22.70;60.47;101007.20;107597;1257;99083;-64
2023/07/19 01:09:57;;;;;;;;;;;;;;;22.64;60.24;101007.15;107611;1251;99077;-63
2023/07/19 01:12:26;;;;;;;;;;;;;;;22.61;60.42;101010.79;107606;1251;112795;-60
2023/07/19 01:14:54;;;;;;;;;;;;;;;22.57;60.76;101004.67;107584;1251;109511;-61
2023/07/19 01:17:22;;;;;;;;;;;;;;;22.54;60.76;101000.33;107447;1257;107638;-61
2023/07/19 01:19:50;;;;;;;;;;;;;;;22.52;61.05;100996.62;107640;1254;99579;-62
2023/07/19 01:22:19;;;;;;;;;;;;;;;22.49;61.30;100993.61;107638;1251;99163;-61
2023/07/19 01:24:48;;;;;;;;;;;;;;;22.48;61.36;100989.40;107673;1255;113196;-63
2023/07/19 01:27:16;;;;;;;;;;;;;;;22.49;61.47;100988.27;107492;1254;109412;-64
2023/07/19 01:29:51;;;;;;;;;;;;;;;22.50;62.17;100988.73;107663;1251;108732;-64
2023/07/19 01:32:19;;;;;;;;;;;;;;;22.52;62.27;100988.00;107451;1254;99344;-64
2023/07/19 01:34:47;;;;;;;;;;;;;;;22.51;62.50;100987.16;107575;1254;99276;-63
2023/07/19 01:37:15;;;;;;;;;;;;;;;22.51;62.25;100985.23;107594;1251;113177;-61
2023/07/19 01:39:44;;;;;;;;;;;;;;;22.49;62.29;100986.74;107618;1256;109964;-63
2023/07/19 01:42:12;;;;;;;;;;;;;;;22.49;62.36;100985.15;107603;1251;108254;-61
2023/07/19 01:44:40;;;;;;;;;;;;;;;22.46;61.95;100985.85;107570;1254;99738;-62
2023/07/19 01:47:09;;;;;;;;;;;;;;;22.43;61.80;100985.91;107433;1254;99362;-61
2023/07/19 01:49:38;;;;;;;;;;;;;;;22.39;61.88;100987.54;107577;1254;112966;-61
2023/07/19 01:52:07;;;;;;;;;;;;;;;22.31;61.77;100983.66;107480;1257;109134;-62
2023/07/19 01:54:35;;;;;;;;;;;;;;;22.23;61.97;100977.07;107466;1254;107891;-61
2023/07/19 01:57:04;;;;;;;;;;;;;;;22.18;62.38;100981.16;107602;1256;99298;-62
2023/07/19 01:59:32;;;;;;;;;;;;;;;22.14;62.61;100980.56;107622;1251;99247;-62
2023/07/19 02:02:00;;;;;;;;;;;;;;;22.08;62.71;100981.48;107599;1251;113144;-60
2023/07/19 02:04:30;;;;;;;;;;;;;;;22.01;62.65;100995.25;107532;1251;108552;-63
2023/07/19 02:06:58;;;;;;;;;;;;;;;21.95;62.88;101000.49;107524;1251;108577;-63
2023/07/19 02:09:29;;;;;;;;;;;;;;;21.89;62.72;100996.64;107670;1251;99071;-60
2023/07/19 02:11:57;;;;;;;;;;;;;;;21.81;62.78;101002.64;107508;1251;99202;-63
2023/07/19 02:14:25;;;;;;;;;;;;;;;21.72;63.20;101006.81;107557;1251;112813;-62
2023/07/19 02:16:53;;;;;;;;;;;;;;;21.67;63.30;101003.34;107487;1251;107994;-60
2023/07/19 02:19:21;;;;;;;;;;;;;;;21.62;63.39;100999.53;107607;1251;108214;-62
2023/07/19 02:21:49;;;;;;;;;;;;;;;21.56;63.37;101001.08;107609;1251;99300;-62
2023/07/19 02:24:17;;;;;;;;;;;;;;;21.52;63.55;101005.61;107627;1251;99156;-59
2023/07/19 02:26:48;;;;;;;;;;;;;;;21.46;63.81;101009.77;107622;1251;112440;-61
2023/07/19 02:29:16;;;;;;;;;;;;;;;21.42;64.03;101018.62;107494;1251;109863;-61
2023/07/19 02:31:44;;;;;;;;;;;;;;;21.40;64.35;101023.10;107471;1251;108275;-60
2023/07/19 02:34:18;;;;;;;;;;;;;;;21.38;65.24;101013.16;107490;1251;99197;-60
2023/07/19 02:36:48;;;;;;;;;;;;;;;21.31;65.36;101005.84;107470;1250;99157;-60
2023/07/19 02:39:20;;;;;;;;;;;;;;;21.31;65.52;101005.40;107574;1251;114177;-60
2023/07/19 02:41:48;;;;;;;;;;;;;;;21.33;65.71;101007.86;107521;1251;109457;-60
2023/07/19 02:44:16;;;;;;;;;;;;;;;21.33;65.73;101007.41;107425;1251;107737;-60
2023/07/19 02:46:45;;;;;;;;;;;;;;;21.33;65.69;101009.30;107460;1251;99194;-60
2023/07/19 02:49:13;;;;;;;;;;;;;;;21.32;65.56;101008.15;107494;1251;99058;-60
2023/07/19 02:51:42;;;;;;;;;;;;;;;21.32;65.37;101007.77;107601;1251;113150;-60
2023/07/19 02:54:11;;;;;;;;;;;;;;;21.30;65.49;100999.52;107529;1251;109120;-59
2023/07/19 02:56:39;;;;;;;;;;;;;;;21.30;65.83;100994.41;107503;1251;108317;-62
2023/07/19 02:59:07;;;;;;;;;;;;;;;21.29;65.46;100998.12;107675;1251;99199;-59
2023/07/19 03:01:36;;;;;;;;;;;;;;;21.28;65.41;100992.56;107607;1253;99178;-61
2023/07/19 03:04:06;;;;;;;;;;;;;;;21.28;65.76;100992.56;107623;1254;112690;-63
2023/07/19 03:06:35;;;;;;;;;;;;;;;21.30;66.13;100989.48;107626;1251;108951;-60
2023/07/19 03:09:06;;;;;;;;;;;;;;;21.32;66.29;100990.59;107640;1253;106975;-61
2023/07/19 03:11:34;;;;;;;;;;;;;;;21.34;66.53;100992.38;107595;1254;99060;-60
2023/07/19 03:14:02;;;;;;;;;;;;;;;21.35;66.70;100988.09;107629;1251;99195;-60
2023/07/19 03:16:30;;;;;;;;;;;;;;;21.36;66.92;100973.08;107595;1251;112770;-60
2023/07/19 03:18:58;;;;;;;;;;;;;;;21.39;66.59;100969.34;107611;1250;109814;-62
2023/07/19 03:21:26;;;;;;;;;;;;;;;21.42;66.58;100964.46;107479;1251;107464;-64
2023/07/19 03:23:55;;;;;;;;;;;;;;;21.45;66.56;100960.23;107494;1250;99204;-61
2023/07/19 03:26:23;;;;;;;;;;;;;;;21.47;66.50;100953.58;107549;1251;99090;-62
2023/07/19 03:28:51;;;;;;;;;;;;;;;21.50;66.43;100946.84;107569;1251;114131;-60
2023/07/19 03:31:19;;;;;;;;;;;;;;;21.54;66.53;100943.24;107481;1250;109102;-61
2023/07/19 03:33:48;;;;;;;;;;;;;;;21.56;66.47;100939.73;107546;1251;107558;-61
2023/07/19 03:36:16;;;;;;;;;;;;;;;21.61;66.43;100941.74;107624;1251;99826;-61
2023/07/19 03:38:44;;;;;;;;;;;;;;;21.65;65.85;100941.55;107605;1256;99221;-60
2023/07/19 03:41:13;;;;;;;;;;;;;;;21.72;65.82;100947.72;107692;1254;112695;-61
2023/07/19 03:43:42;;;;;;;;;;;;;;;21.75;65.16;100953.75;107556;1254;110305;-59
2023/07/19 03:46:10;;;;;;;;;;;;;;;21.74;64.54;100960.33;107576;1254;107894;-60
2023/07/19 03:48:39;;;;;;;;;;;;;;;21.80;65.21;100963.66;107651;1251;99324;-62
2023/07/19 03:51:08;;;;;;;;;;;;;;;21.93;65.51;100961.09;107616;1251;99175;-63
2023/07/19 03:53:37;;;;;;;;;;;;;;;22.03;65.46;100962.25;107626;1251;113445;-63
2023/07/19 03:56:05;;;;;;;;;;;;;;;22.07;65.51;100963.02;107577;1254;109826;-61
2023/07/19 03:58:33;;;;;;;;;;;;;;;22.11;65.43;100965.23;107552;1254;108054;-61
2023/07/19 04:01:03;;;;;;;;;;;;;;;22.15;65.39;100960.32;107447;1253;99218;-61
2023/07/19 04:03:33;;;;;;;;;;;;;;;22.19;65.10;100958.52;107416;1253;99084;-62
2023/07/19 04:06:03;;;;;;;;;;;;;;;22.27;65.06;100959.80;107579;1251;112513;-62
2023/07/19 04:08:33;;;;;;;;;;;;;;;22.37;64.91;100962.09;107404;1259;110064;-60
2023/07/19 04:11:02;;;;;;;;;;;;;;;22.46;64.76;100959.96;107599;1253;108037;-60
2023/07/19 04:13:30;;;;;;;;;;;;;;;22.49;65.14;100953.17;107424;1253;99058;-62
2023/07/19 04:15:59;;;;;;;;;;;;;;;22.49;65.14;100953.98;107459;1253;99039;-61
2023/07/19 04:18:27;;;;;;;;;;;;;;;22.50;64.75;100956.42;107637;1253;113914;-62
2023/07/19 04:20:57;;;;;;;;;;;;;;;22.55;64.73;100959.67;107587;1251;109282;-61
2023/07/19 04:23:27;;;;;;;;;;;;;;;22.63;64.78;100962.91;107623;1254;107995;-60
2023/07/19 04:25:55;;;;;;;;;;;;;;;22.72;64.67;100967.20;107601;1254;99192;-61
2023/07/19 04:28:24;;;;;;;;;;;;;;;22.80;64.25;100961.09;107622;1254;99394;-60
2023/07/19 04:30:52;;;;;;;;;;;;;;;22.85;63.23;100951.91;107457;1254;112956;-61
2023/07/19 04:33:20;;;;;;;;;;;;;;;22.90;63.14;100948.45;107474;1254;109267;-61
2023/07/19 04:35:49;;;;;;;;;;;;;;;23.00;62.97;100953.45;107600;1254;107588;-61
2023/07/19 04:38:18;;;;;;;;;;;;;;;23.09;62.07;100965.79;107646;1251;99170;-60
2023/07/19 04:40:46;;;;;;;;;;;;;;;23.09;61.24;100967.77;107488;1253;99304;-60
2023/07/19 04:43:14;;;;;;;;;;;;;;;23.11;60.89;100968.15;107648;1253;113231;-63
2023/07/19 04:45:47;;;;;;;;;;;;;;;23.15;60.79;100968.36;107625;1253;109832;-61
2023/07/19 04:48:15;;;;;;;;;;;;;;;23.20;60.81;100968.45;107471;1253;107852;-63
2023/07/19 04:50:44;;;;;;;;;;;;;;;23.27;60.85;100966.95;107597;1254;99151;-61
2023/07/19 04:53:12;;;;;;;;;;;;;;;23.32;60.58;100964.74;107608;1252;99201;-61
2023/07/19 04:55:42;;;;;;;;;;;;;;;23.35;60.39;100961.50;107612;1254;113184;-63
2023/07/19 04:58:12;;;;;;;;;;;;;;;23.38;60.14;100954.77;107653;1253;109561;-60
2023/07/19 05:00:41;;;;;;;;;;;;;;;23.41;60.08;100961.54;107643;1250;107802;-62
2023/07/19 05:03:11;;;;;;;;;;;;;;;23.42;59.72;100963.33;107532;1251;99266;-63
2023/07/19 05:05:40;;;;;;;;;;;;;;;23.42;59.49;100973.08;107506;1250;99165;-62
2023/07/19 05:08:08;;;;;;;;;;;;;;;23.43;59.22;100971.30;107532;1251;113923;-63
2023/07/19 05:10:37;;;;;;;;;;;;;;;23.43;59.02;100962.85;107616;1251;108823;-61
2023/07/19 05:13:06;;;;;;;;;;;;;;;23.48;58.59;100960.77;107529;1251;108449;-61
2023/07/19 05:15:34;;;;;;;;;;;;;;;23.58;58.52;100956.02;107652;1254;99285;-64
2023/07/19 05:18:06;;;;;;;;;;;;;;;23.66;58.20;100948.27;107584;1254;99052;-64
2023/07/19 05:20:35;;;;;;;;;;;;;;;23.76;58.19;100951.04;107644;1251;113304;-62
2023/07/19 05:23:03;;;;;;;;;;;;;;;23.88;58.19;100951.02;107701;1251;109390;-61
2023/07/19 05:25:31;;;;;;;;;;;;;;;24.00;58.07;100955.91;107464;1251;109701;-61
2023/07/19 05:28:00;;;;;;;;;;;;;;;24.12;57.63;100959.13;107484;1250;99343;-65
2023/07/19 05:30:28;;;;;;;;;;;;;;;24.23;56.71;100953.23;107595;1254;99214;-61
2023/07/19 05:32:56;;;;;;;;;;;;;;;24.34;56.52;100956.60;107497;1250;113240;-62
2023/07/19 05:35:24;;;;;;;;;;;;;;;24.41;55.50;100961.02;107552;1251;109072;-63
2023/07/19 05:37:53;;;;;;;;;;;;;;;24.42;55.43;100959.67;107492;1251;108142;-61
2023/07/19 05:40:21;;;;;;;;;;;;;;;24.42;55.68;100956.59;107483;1250;99236;-60
2023/07/19 05:42:49;;;;;;;;;;;;;;;24.42;54.94;100952.27;107498;1251;99057;-62
2023/07/19 05:45:18;;;;;;;;;;;;;;;24.39;55.00;100949.25;107528;1250;113212;-59
2023/07/19 05:47:46;;;;;;;;;;;;;;;24.43;55.24;100950.36;107696;1253;108573;-62
2023/07/19 05:50:14;;;;;;;;;;;;;;;24.53;55.56;100939.31;107527;1251;108454;-61
2023/07/19 05:52:42;;;;;;;;;;;;;;;24.65;55.22;100929.17;107596;1251;99179;-61
2023/07/19 05:55:10;;;;;;;;;;;;;;;24.76;55.07;100921.41;107538;1251;99633;-63
2023/07/19 05:57:41;;;;;;;;;;;;;;;24.86;54.81;100915.88;107556;1251;113469;-63
2023/07/19 06:00:18;;;;;;;;;;;;;;;24.96;54.37;100916.52;107538;1251;109425;-61
2023/07/19 06:02:49;;;;;;;;;;;;;;;25.06;54.03;100923.36;107580;1251;108057;-62
2023/07/19 06:05:24;;;;;;;;;;;;;;;25.13;53.69;100934.42;107573;1254;99189;-63
2023/07/19 06:07:53;;;;;;;;;;;;;;;25.16;52.63;100934.00;107586;1251;99054;-62
2023/07/19 06:10:22;;;;;;;;;;;;;;;25.19;52.19;100933.66;107540;1251;113110;-63
2023/07/19 06:12:50;;;;;;;;;;;;;;;25.18;51.74;100940.35;107508;1251;109552;-62
2023/07/19 06:15:18;;;;;;;;;;;;;;;25.18;51.90;100941.02;107530;1251;108081;-63
2023/07/19 06:17:46;;;;;;;;;;;;;;;25.29;52.17;100952.06;107510;1251;99249;-64
2023/07/19 06:20:14;;;;;;;;;;;;;;;25.44;52.20;100947.16;107542;1250;99204;-62
2023/07/19 06:22:43;;;;;;;;;;;;;;;25.58;52.17;100936.79;107580;1254;113329;-62
2023/07/19 06:25:12;;;;;;;;;;;;;;;25.71;51.96;100928.58;107578;1251;109312;-61
2023/07/19 06:27:40;;;;;;;;;;;;;;;25.79;52.35;100930.75;107488;1254;109020;-64
2023/07/19 06:30:09;;;;;;;;;;;;;;;25.85;52.55;100924.52;107486;1251;99189;-62
2023/07/19 06:32:37;;;;;;;;;;;;;;;25.84;52.26;100913.58;107535;1251;99080;-61
2023/07/19 06:35:08;;;;;;;;;;;;;;;25.84;52.41;100919.20;107661;1253;113278;-62
2023/07/19 06:37:37;;;;;;;;;;;;;;;25.82;52.22;100917.37;107545;1254;109811;-63
2023/07/19 06:40:11;;;;;;;;;;;;;;;25.81;52.43;100908.09;107579;1251;107147;-65
2023/07/19 06:42:49;;;;;;;;;;;;;;;25.86;52.41;100911.80;107467;1256;99160;-64
2023/07/19 06:45:19;;;;;;;;;;;;;;;25.92;52.10;100905.68;107577;1254;99128;-62
2023/07/19 06:47:47;;;;;;;;;;;;;;;26.00;52.20;100909.59;107558;1251;113275;-61
2023/07/19 06:50:17;;;;;;;;;;;;;;;26.08;52.10;100907.27;107570;1254;110045;-65
2023/07/19 06:52:45;;;;;;;;;;;;;;;26.14;51.76;100902.95;107572;1251;107797;-62
2023/07/19 06:55:13;;;;;;;;;;;;;;;26.19;51.65;100907.54;107527;1251;99285;-60
2023/07/19 06:57:41;;;;;;;;;;;;;;;26.23;51.32;100904.66;107622;1251;99166;-62
2023/07/19 07:00:10;;;;;;;;;;;;;;;26.26;50.78;100901.87;107642;1251;113733;-61
2023/07/19 07:02:38;;;;;;;;;;;;;;;26.33;51.35;100905.48;107655;1251;108395;-60
2023/07/19 07:05:10;;;;;;;;;;;;;;;26.37;50.94;100911.27;107519;1252;108255;-60
2023/07/19 07:07:39;;;;;;;;;;;;;;;26.35;50.15;100908.77;107565;1250;99179;-65
2023/07/19 07:10:09;;;;;;;;;;;;;;;26.35;49.94;100905.15;107602;1251;99260;-62
2023/07/19 07:12:38;;;;;;;;;;;;;;;26.35;49.15;100902.77;107564;1255;112970;-62
2023/07/19 07:15:06;;;;;;;;;;;;;;;26.29;48.86;100901.00;107574;1251;110633;-63
2023/07/19 07:17:34;;;;;;;;;;;;;;;26.23;49.56;100902.37;107613;1254;107990;-66
2023/07/19 07:20:04;;;;;;;;;;;;;;;26.21;49.04;100904.96;107621;1251;99140;-63
2023/07/19 07:22:32;;;;;;;;;;;;;;;26.28;49.31;100896.41;107613;1251;99154;-62
2023/07/19 07:25:01;;;;;;;;;;;;;;;26.46;49.35;100888.11;107565;1254;112767;-61
2023/07/19 07:27:34;;;;;;;;;;;;;;;26.75;49.02;100884.11;107574;1251;109709;-62
2023/07/19 07:30:03;;;;;;;;;;;;;;;27.10;48.85;100882.29;107638;1255;106827;-62
2023/07/19 07:32:31;;;;;;;;;;;;;;;27.43;47.74;100873.02;107672;1251;99051;-65
2023/07/19 07:34:59;;;;;;;;;;;;;;;27.63;46.79;100865.70;107605;1251;99063;-62
2023/07/19 07:37:28;;;;;;;;;;;;;;;27.74;45.93;100864.75;107535;1251;113771;-62
2023/07/19 07:39:56;;;;;;;;;;;;;;;27.78;45.52;100867.81;107571;1254;109411;-61
2023/07/19 07:42:25;;;;;;;;;;;;;;;27.87;45.93;100880.34;107579;1251;107526;-62
2023/07/19 07:44:53;;;;;;;;;;;;;;;27.97;44.47;100883.89;107567;1252;99170;-63
2023/07/19 07:47:22;;;;;;;;;;;;;;;28.06;43.56;100875.70;107615;1251;99272;-62
2023/07/19 07:49:50;;;;;;;;;;;;;;;28.17;43.40;100869.47;107640;1251;113529;-66
2023/07/19 07:52:21;;;;;;;;;;;;;;;28.34;43.55;100865.31;107598;1254;109257;-63
2023/07/19 07:54:51;;;;;;;;;;;;;;;28.49;41.87;100860.12;107579;1251;108218;-62
2023/07/19 07:57:20;;;;;;;;;;;;;;;28.53;41.43;100860.72;107565;1251;99169;-61
2023/07/19 07:59:48;;;;;;;;;;;;;;;28.55;41.43;100858.05;107633;1251;99172;-61
2023/07/19 08:02:16;;;;;;;;;;;;;;;28.58;41.03;100856.31;107555;1251;113081;-61
2023/07/19 08:04:44;;;;;;;;;;;;;;;28.62;40.51;100851.79;107000;1254;766611;-60
2023/07/19 08:07:13;;;;;;;;;;;;;;;28.65;39.81;100851.03;107593;1251;107147;-61
2023/07/19 08:09:44;;;;;;;;;;;;;;;28.67;40.52;100847.80;107609;1251;99233;-62
2023/07/19 08:12:14;;;;;;;;;;;;;;;28.79;40.04;100856.46;107640;1251;99166;-62
2023/07/19 08:14:42;;;;;;;;;;;;;;;28.81;39.62;100850.01;107596;1251;114284;-60
2023/07/19 08:17:10;;;;;;;;;;;;;;;28.83;40.28;100849.61;107603;1251;109579;-64
2023/07/19 08:19:39;;;;;;;;;;;;;;;28.95;40.16;100850.79;107547;1253;107059;-63
2023/07/19 08:22:07;;;;;;;;;;;;;;;28.95;40.30;100852.67;107601;1254;99288;-61
2023/07/19 08:24:35;;;;;;;;;;;;;;;28.95;39.90;100855.89;107548;1253;99112;-63
2023/07/19 08:27:04;;;;;;;;;;;;;;;28.94;40.17;100848.67;107629;1254;112851;-62
2023/07/19 08:29:33;;;;;;;;;;;;;;;28.95;40.28;100841.98;107633;1251;110133;-63
2023/07/19 08:32:03;;;;;;;;;;;;;;;28.96;40.19;100838.19;107575;1254;108151;-62
2023/07/19 08:34:31;;;;;;;;;;;;;;;28.96;39.83;100835.86;107556;1254;99151;-60
2023/07/19 08:36:59;;;;;;;;;;;;;;;29.01;39.98;100829.88;107601;1251;99268;-62
2023/07/19 08:39:28;;;;;;;;;;;;;;;29.01;39.41;100828.27;107613;1251;113470;-61
2023/07/19 08:41:56;;;;;;;;;;;;;;;29.06;39.49;100831.99;107648;1251;109632;-62
2023/07/19 08:44:25;;;;;;;;;;;;;;;29.19;38.98;100823.77;107534;1252;108255;-62
2023/07/19 08:46:57;;;;;;;;;;;;;;;29.38;39.15;100817.52;107460;1254;99597;-60
2023/07/19 08:49:25;;;;;;;;;;;;;;;29.51;38.40;100808.88;107560;1254;99260;-64
2023/07/19 08:51:56;;;;;;;;;;;;;;;29.61;38.21;100810.92;107609;1254;112765;-61
2023/07/19 08:54:24;;;;;;;;;;;;;;;29.63;38.44;100806.95;107610;1254;109778;-60
2023/07/19 08:56:56;;;;;;;;;;;;;;;29.68;38.99;100807.98;107566;1251;108131;-63
2023/07/19 08:59:25;;;;;;;;;;;;;;;29.70;38.39;100804.80;107604;1251;99170;-63
2023/07/19 09:01:56;;;;;;;;;;;;;;;29.63;38.72;100803.68;107566;1254;99858;-62
2023/07/19 09:04:32;;;;;;;;;;;;;;;29.56;38.57;100802.39;107613;1254;112119;-61
2023/07/19 09:07:02;;;;;;;;;;;;;;;29.39;38.72;100802.89;107482;1256;109513;-62
2023/07/19 09:09:30;;;;;;;;;;;;;;;29.28;38.87;100807.97;107576;1251;108264;-62
2023/07/19 09:11:59;;;;;;;;;;;;;;;29.08;39.13;100809.03;107525;1254;99156;-61
2023/07/19 09:14:33;;;;;;;;;;;;;;;28.94;39.67;100810.79;107633;1251;99148;-59
2023/07/19 09:17:02;;;;;;;;;;;;;;;28.86;39.68;100807.39;107596;1251;113278;-61
2023/07/19 09:19:31;;;;;;;;;;;;;;;28.77;40.14;100808.94;107672;1251;109738;-61
2023/07/19 09:22:03;;;;;;;;;;;;;;;28.72;40.20;100813.47;107518;1253;108100;-62
2023/07/19 09:24:31;;;;;;;;;;;;;;;28.67;40.54;100815.75;107589;1251;99160;-61
2023/07/19 09:27:00;;;;;;;;;;;;;;;28.66;40.68;100820.45;107558;1251;99281;-59
2023/07/19 09:29:29;;;;;;;;;;;;;;;28.63;40.74;100820.29;107606;1251;112502;-59
2023/07/19 09:32:01;;;;;;;;;;;;;;;28.47;41.28;100817.15;107565;1251;109131;-62
2023/07/19 09:34:36;;;;;;;;;;;;;;;28.37;41.19;100816.13;107496;1251;108081;-63
2023/07/19 09:37:05;;;;;;;;;;;;;;;28.24;41.65;100820.35;107560;1251;99178;-61
2023/07/19 09:39:34;;;;;;;;;;;;;;;28.15;41.88;100815.08;107554;1251;99057;-60
2023/07/19 09:42:05;;;;;;;;;;;;;;;28.08;42.40;100804.79;107565;1251;112391;-62
2023/07/19 09:44:36;;;;;;;;;;;;;;;27.98;42.42;100791.78;107591;1254;109682;-62
2023/07/19 09:47:08;;;;;;;;;;;;;;;27.92;42.49;100776.80;107557;1251;108130;-62
2023/07/19 09:49:50;;;;;;;;;;;;;;;27.83;42.92;100768.92;107620;1253;99156;-61
2023/07/19 09:52:18;;;;;;;;;;;;;;;27.69;43.63;100768.10;107589;1251;99028;-61
2023/07/19 09:54:47;;;;;;;;;;;;;;;27.54;43.76;100767.58;107534;1253;112793;-61
2023/07/19 09:57:15;;;;;;;;;;;;;;;27.49;44.52;100775.27;107611;1251;110453;-62
2023/07/19 09:59:47;;;;;;;;;;;;;;;27.42;44.77;100778.40;107590;1251;107314;-61
2023/07/19 10:02:18;;;;;;;;;;;;;;;27.33;43.19;100771.80;107606;1250;99904;-63
2023/07/19 10:05:05;;;;;;;;;;;;;;;27.25;43.57;100766.59;107611;1251;99070;-62
2023/07/19 10:07:34;;;;;;;;;;;;;;;27.23;43.63;100764.21;107655;1251;113138;-62
2023/07/19 10:10:19;;;;;;;;;;;;;;;27.23;43.78;100763.35;107588;1251;110382;-61
2023/07/19 10:12:50;;;;;;;;;;;;;;;27.30;43.81;100763.71;107568;1251;108261;-60
2023/07/19 10:15:20;;;;;;;;;;;;;;;27.39;43.84;100759.43;107590;1251;99288;-62
2023/07/19 10:17:50;;;;;;;;;;;;;;;27.44;43.33;100757.02;107543;1251;99076;-61
2023/07/19 10:20:22;;;;;;;;;;;;;;;27.49;43.27;100757.33;107635;1251;112396;-61
2023/07/19 10:23:00;;;;;;;;;;;;;;;27.57;43.34;100751.20;107647;1251;108501;-61
2023/07/19 10:25:31;;;;;;;;;;;;;;;27.67;42.88;100745.47;107570;1252;108019;-62
2023/07/19 10:28:07;;;;;;;;;;;;;;;27.73;42.15;100745.61;107629;1250;99044;-62
2023/07/19 10:30:50;;;;;;;;;;;;;;;27.70;42.40;100742.02;107573;1254;99637;-63
2023/07/19 10:33:23;;;;;;;;;;;;;;;27.66;42.16;100739.69;107606;1251;112512;-60
2023/07/19 10:35:52;;;;;;;;;;;;;;;27.62;42.11;100729.80;107609;1254;109943;-62
2023/07/19 10:38:24;;;;;;;;;;;;;;;27.61;42.11;100726.79;107571;1254;108125;-65
2023/07/19 10:40:59;;;;;;;;;;;;;;;27.66;42.35;100723.89;107580;1252;99130;-60
2023/07/19 10:43:28;;;;;;;;;;;;;;;27.79;42.53;100714.91;107695;1251;99249;-63
2023/07/19 10:46:12;;;;;;;;;;;;;;;27.90;42.53;100711.32;107630;1251;112375;-64
2023/07/19 10:48:49;;;;;;;;;;;;;;;27.98;42.47;100709.99;107601;1254;109484;-61
2023/07/19 10:51:21;;;;;;;;;;;;;;;28.01;42.36;100710.38;107587;1254;108287;-61
2023/07/19 10:53:56;;;;;;;;;;;;;;;27.93;42.41;100706.46;107642;1250;99205;-61
2023/07/19 10:56:26;;;;;;;;;;;;;;;27.93;42.88;100707.88;107546;1253;99275;-62
2023/07/19 10:59:01;;;;;;;;;;;;;;;27.92;43.09;100703.44;107532;1251;113120;-62
2023/07/19 11:01:29;;;;;;;;;;;;;;;27.93;42.80;100704.34;107600;1253;109636;-61
2023/07/19 11:04:03;;;;;;;;;;;;;;;27.94;42.86;100708.17;107612;1251;107421;-61
2023/07/19 11:06:33;;;;;;;;;;;;;;;27.99;42.87;100704.70;107621;1251;99278;-61
2023/07/19 11:09:05;;;;;;;;;;;;;;;28.06;42.79;100702.77;107640;1254;99153;-61
2023/07/19 11:11:37;;;;;;;;;;;;;;;28.18;42.82;100707.43;107619;1254;113426;-62
2023/07/19 11:14:05;;;;;;;;;;;;;;;28.36;42.12;100707.78;107514;1253;110176;-61
2023/07/19 11:16:34;;;;;;;;;;;;;;;28.54;41.94;100699.98;107620;1255;108221;-60
2023/07/19 11:19:03;;;;;;;;;;;;;;;28.75;41.45;100697.84;107641;1254;99178;-62
2023/07/19 11:21:31;;;;;;;;;;;;;;;28.93;41.36;100696.88;107712;1251;99061;-61
2023/07/19 11:24:02;;;;;;;;;;;;;;;29.14;41.24;100689.83;107584;1251;112885;-64
2023/07/19 11:26:30;;;;;;;;;;;;;;;29.25;41.04;100683.56;107632;1255;110196;-61
2023/07/19 11:28:59;;;;;;;;;;;;;;;29.33;41.25;100680.10;107567;1254;108218;-61
2023/07/19 11:31:32;;;;;;;;;;;;;;;29.33;41.18;100671.28;107594;1254;99058;-60
2023/07/19 11:34:04;;;;;;;;;;;;;;;29.29;40.96;100668.23;107656;1251;99170;-61
2023/07/19 11:36:32;;;;;;;;;;;;;;;29.29;40.80;100663.20;107609;1251;114102;-61
2023/07/19 11:39:01;;;;;;;;;;;;;;;29.40;40.82;100659.39;107586;1251;109165;-61
2023/07/19 11:41:29;;;;;;;;;;;;;;;29.64;40.60;100650.35;107677;1251;107763;-61
2023/07/19 11:43:57;;;;;;;;;;;;;;;30.11;40.08;100653.08;107651;1251;99346;-61
2023/07/19 11:46:26;;;;;;;;;;;;;;;30.94;38.79;100660.54;107677;1251;99259;-62
2023/07/19 11:48:54;;;;;;;;;;;;;;;32.21;38.18;100654.55;107578;1252;113591;-61
2023/07/19 11:51:22;;;;;;;;;;;;;;;33.65;35.97;100643.14;107620;1252;110165;-62
2023/07/19 11:53:51;;;;;;;;;;;;;;;34.94;34.31;100635.91;107612;1255;108252;-62
2023/07/19 11:56:20;;;;;;;;;;;;;;;35.89;31.69;100635.41;107577;1253;99253;-62
2023/07/19 11:58:48;;;;;;;;;;;;;;;36.08;30.36;100635.77;107660;1255;99285;-62
2023/07/19 12:01:18;;;;;;;;;;;;;;;36.13;30.27;100634.21;107541;1254;113605;-61
2023/07/19 12:03:47;;;;;;;;;;;;;;;35.87;29.83;100638.70;107620;1251;109084;-60
2023/07/19 12:06:16;;;;;;;;;;;;;;;35.16;30.23;100631.92;107635;1251;108795;-62
2023/07/19 12:08:46;;;;;;;;;;;;;;;34.64;31.52;100624.57;107614;1250;99192;-63
2023/07/19 12:11:14;;;;;;;;;;;;;;;34.50;31.68;100622.84;107646;1254;99181;-62
2023/07/19 12:13:42;;;;;;;;;;;;;;;35.36;31.31;100618.34;107696;1251;113212;-60
2023/07/19 12:16:10;;;;;;;;;;;;;;;36.42;30.26;100624.23;107618;1251;109651;-64
2023/07/19 12:18:39;;;;;;;;;;;;;;;37.18;30.01;100625.64;107585;1251;107701;-62
2023/07/19 12:21:10;;;;;;;;;;;;;;;37.88;28.12;100628.09;107590;1251;99362;-61
2023/07/19 12:23:38;;;;;;;;;;;;;;;38.63;26.69;100614.89;107621;1251;99182;-64
2023/07/19 12:26:09;;;;;;;;;;;;;;;38.93;26.52;100607.05;107668;1251;113350;-61
2023/07/19 12:28:37;;;;;;;;;;;;;;;39.14;25.77;100603.04;107650;1251;110203;-64
2023/07/19 12:31:08;;;;;;;;;;;;;;;39.54;26.15;100601.80;107633;1251;108935;-61